createdAt,value
2019-03-17T00:01:27.836Z,80.17
2019-03-17T00:03:58.925Z,80.15
2019-03-17T00:06:29.909Z,79.95
2019-03-17T00:09:00.903Z,80.28
2019-03-17T00:11:32.191Z,80.44
2019-03-17T00:14:03.198Z,80.50
2019-03-17T00:16:34.240Z,80.74
2019-03-17T00:19:05.283Z,80.89
2019-03-17T00:21:36.191Z,81.02
2019-03-17T00:24:07.245Z,80.98
2019-03-17T00:26:38.157Z,81.09
2019-03-17T00:29:09.200Z,81.49
2019-03-17T00:31:40.215Z,81.57
2019-03-17T00:34:11.798Z,81.70
2019-03-17T00:36:42.813Z,81.35
2019-03-17T00:39:13.807Z,81.26
2019-03-17T00:41:44.721Z,80.99
2019-03-17T00:44:15.641Z,81.35
2019-03-17T00:46:46.671Z,81.52
2019-03-17T00:49:17.985Z,81.13
2019-03-17T00:51:48.964Z,80.93
2019-03-17T00:54:19.952Z,81.32
2019-03-17T00:56:50.942Z,81.37
2019-03-17T00:59:21.953Z,81.13
2019-03-17T01:01:53.090Z,81.57
2019-03-17T01:04:23.959Z,81.61
2019-03-17T01:06:55.004Z,81.81
2019-03-17T01:09:26.000Z,81.79
2019-03-17T01:11:56.934Z,81.90
2019-03-17T01:14:27.879Z,81.99
2019-03-17T01:16:58.850Z,81.46
2019-03-17T01:19:29.855Z,80.90
2019-03-17T01:22:00.946Z,80.87
2019-03-17T01:24:32.014Z,80.96
2019-03-17T01:27:03.030Z,80.86
2019-03-17T01:29:34.022Z,80.87
2019-03-17T01:32:05.009Z,80.57
2019-03-17T01:34:35.894Z,80.69
2019-03-17T01:37:06.993Z,80.66
2019-03-17T01:39:37.955Z,80.90
2019-03-17T01:42:08.986Z,81.15
2019-03-17T01:44:40.138Z,81.12
2019-03-17T01:47:11.306Z,80.84
2019-03-17T01:49:42.749Z,80.77
2019-03-17T01:52:13.774Z,80.91
2019-03-17T01:54:44.858Z,80.90
2019-03-17T01:57:15.835Z,80.94
2019-03-17T01:59:46.840Z,80.71
2019-03-17T02:02:19.018Z,80.62
2019-03-17T02:04:49.939Z,80.47
2019-03-17T02:07:20.862Z,80.71
2019-03-17T02:09:51.749Z,80.80
2019-03-17T02:12:22.807Z,80.80
2019-03-17T02:14:54.780Z,80.59
2019-03-17T02:17:25.874Z,80.56
2019-03-17T02:19:56.807Z,80.88
2019-03-17T02:22:27.746Z,80.59
2019-03-17T02:24:58.817Z,80.64
2019-03-17T02:27:29.700Z,80.29
2019-03-17T02:30:00.677Z,80.44
2019-03-17T02:32:31.613Z,80.42
2019-03-17T02:35:02.554Z,80.53
2019-03-17T02:37:33.585Z,80.75
2019-03-17T02:40:06.056Z,80.44
2019-03-17T02:42:37.049Z,80.56
2019-03-17T02:45:09.895Z,80.80
2019-03-17T02:47:40.825Z,80.70
2019-03-17T02:50:11.856Z,80.52
2019-03-17T02:52:42.912Z,80.79
2019-03-17T02:55:13.842Z,80.75
2019-03-17T02:57:44.788Z,80.74
2019-03-17T03:00:18.460Z,80.34
2019-03-17T03:02:48.398Z,80.35
2019-03-17T03:05:19.286Z,80.68
2019-03-17T03:07:50.296Z,80.93
2019-03-17T03:10:21.172Z,80.65
2019-03-17T03:12:52.168Z,80.78
2019-03-17T03:15:23.046Z,80.66
2019-03-17T03:17:54.039Z,80.62
2019-03-17T03:20:25.080Z,80.53
2019-03-17T03:22:56.022Z,80.36
2019-03-17T03:25:26.958Z,80.36
2019-03-17T03:27:57.847Z,80.52
2019-03-17T03:30:28.739Z,80.48
2019-03-17T03:32:59.797Z,80.23
2019-03-17T03:35:30.766Z,80.22
2019-03-17T03:38:01.653Z,80.09
2019-03-17T03:40:33.872Z,80.06
2019-03-17T03:43:05.453Z,79.90
2019-03-17T03:45:36.337Z,79.78
2019-03-17T03:48:07.561Z,79.57
2019-03-17T03:50:38.761Z,79.39
2019-03-17T03:53:09.669Z,79.67
2019-03-17T03:55:42.353Z,79.52
2019-03-17T03:58:13.467Z,79.77
2019-03-17T04:00:44.483Z,79.71
2019-03-17T04:03:15.428Z,79.65
2019-03-17T04:05:46.338Z,79.78
2019-03-17T04:08:17.337Z,79.49
2019-03-17T04:10:48.315Z,79.81
2019-03-17T04:13:19.387Z,80.36
2019-03-17T04:15:50.474Z,79.43
2019-03-17T04:18:21.770Z,79.90
2019-03-17T04:20:52.715Z,80.10
2019-03-17T04:23:23.647Z,79.91
2019-03-17T04:25:54.677Z,80.01
2019-03-17T04:28:25.790Z,80.31
2019-03-17T04:30:56.753Z,80.35
2019-03-17T04:33:27.759Z,80.40
2019-03-17T04:35:58.757Z,80.49
2019-03-17T04:38:29.704Z,80.35
2019-03-17T04:41:00.706Z,79.94
2019-03-17T04:43:31.715Z,80.34
2019-03-17T04:46:02.686Z,80.17
2019-03-17T04:48:33.794Z,79.60
2019-03-17T04:51:04.880Z,79.08
2019-03-17T04:53:35.939Z,78.71
2019-03-17T04:56:06.921Z,78.74
2019-03-17T04:58:37.963Z,79.40
2019-03-17T05:01:08.909Z,79.06
2019-03-17T05:03:39.834Z,78.82
2019-03-17T05:06:10.722Z,78.78
2019-03-17T05:08:41.789Z,78.57
2019-03-17T05:11:12.825Z,78.29
2019-03-17T05:13:44.294Z,78.32
2019-03-17T05:16:15.345Z,77.84
2019-03-17T05:18:46.552Z,77.81
2019-03-17T05:21:17.541Z,76.43
2019-03-17T05:23:48.519Z,77.65
2019-03-17T05:26:19.437Z,77.81
2019-03-17T05:28:50.416Z,78.33
2019-03-17T05:31:21.403Z,78.09
2019-03-17T05:33:52.504Z,78.27
2019-03-17T05:36:23.477Z,77.87
2019-03-17T05:38:54.630Z,77.61
2019-03-17T05:41:25.607Z,76.67
2019-03-17T05:43:56.656Z,75.79
2019-03-17T05:46:27.633Z,76.84
2019-03-17T05:48:58.656Z,77.25
2019-03-17T05:51:30.014Z,77.79
2019-03-17T05:54:00.988Z,77.94
2019-03-17T05:56:32.020Z,77.33
2019-03-17T05:59:05.458Z,77.33
2019-03-17T06:01:36.700Z,77.56
2019-03-17T06:04:07.810Z,77.77
2019-03-17T06:06:38.753Z,76.37
2019-03-17T06:09:09.793Z,76.01
2019-03-17T06:11:40.937Z,75.69
2019-03-17T06:14:11.924Z,74.50
2019-03-17T06:16:42.937Z,73.85
2019-03-17T06:19:14.084Z,72.61
2019-03-17T06:21:45.284Z,71.07
2019-03-17T06:24:16.758Z,70.40
2019-03-17T06:26:48.994Z,72.57
2019-03-17T06:29:20.059Z,72.49
2019-03-17T06:31:51.118Z,72.07
2019-03-17T06:34:24.355Z,73.27
2019-03-17T06:36:55.006Z,74.16
2019-03-17T06:39:26.082Z,73.79
2019-03-17T06:41:57.136Z,74.33
2019-03-17T06:44:28.270Z,72.41
2019-03-17T06:46:59.708Z,73.39
2019-03-17T06:49:30.761Z,72.47
2019-03-17T06:52:01.838Z,71.76
2019-03-17T06:54:32.841Z,71.55
2019-03-17T06:57:03.982Z,72.73
2019-03-17T06:59:36.159Z,72.30
2019-03-17T07:02:07.320Z,72.30
2019-03-17T07:04:38.286Z,71.61
2019-03-17T07:07:09.455Z,73.19
2019-03-17T07:09:40.541Z,73.33
2019-03-17T07:12:11.657Z,71.18
2019-03-17T07:14:42.652Z,70.59
2019-03-17T07:17:13.805Z,71.68
2019-03-17T07:19:44.941Z,71.08
2019-03-17T07:22:16.032Z,70.41
2019-03-17T07:24:47.032Z,69.83
2019-03-17T07:27:18.128Z,70.24
2019-03-17T07:29:49.619Z,69.28
2019-03-17T07:32:20.863Z,69.95
2019-03-17T07:34:52.027Z,70.20
2019-03-17T07:37:23.083Z,68.46
2019-03-17T07:39:54.124Z,66.63
2019-03-17T07:42:25.236Z,67.84
2019-03-17T07:44:56.194Z,66.23
2019-03-17T07:47:28.283Z,68.05
2019-03-17T07:49:59.452Z,65.59
2019-03-17T07:52:30.434Z,63.52
2019-03-17T07:55:01.399Z,63.48
2019-03-17T07:57:32.421Z,64.57
2019-03-17T08:00:08.399Z,64.57
2019-03-17T08:02:39.372Z,63.64
2019-03-17T08:05:10.841Z,63.71
2019-03-17T08:07:41.717Z,63.86
2019-03-17T08:10:16.524Z,66.03
2019-03-17T08:12:47.800Z,66.87
2019-03-17T08:15:20.824Z,67.36
2019-03-17T08:17:52.887Z,68.86
2019-03-17T08:20:24.112Z,69.66
2019-03-17T08:22:55.603Z,68.90
2019-03-17T08:25:27.733Z,68.16
2019-03-17T08:27:58.790Z,69.00
2019-03-17T08:30:29.748Z,69.49
2019-03-17T08:33:00.900Z,68.79
2019-03-17T08:35:32.123Z,70.34
2019-03-17T08:38:03.165Z,69.84
2019-03-17T08:40:34.308Z,70.04
2019-03-17T08:43:05.219Z,70.80
2019-03-17T08:45:36.907Z,70.25
2019-03-17T08:48:08.399Z,70.73
2019-03-17T08:50:40.578Z,70.97
2019-03-17T08:53:11.665Z,70.25
2019-03-17T08:55:42.857Z,69.73
2019-03-17T08:58:15.373Z,70.40
2019-03-17T09:00:46.554Z,70.40
2019-03-17T09:03:17.629Z,70.92
2019-03-17T09:05:48.689Z,71.61
2019-03-17T09:08:19.726Z,72.33
2019-03-17T09:10:50.701Z,71.90
2019-03-17T09:13:21.820Z,70.54
2019-03-17T09:15:52.875Z,69.14
2019-03-17T09:18:26.829Z,69.14
2019-03-17T09:20:57.176Z,67.75
2019-03-17T09:23:29.180Z,68.29
2019-03-17T09:26:00.334Z,67.92
2019-03-17T09:28:31.501Z,68.60
2019-03-17T09:31:07.058Z,68.60
2019-03-17T09:33:35.466Z,71.44
2019-03-17T09:36:06.598Z,70.37
2019-03-17T09:38:46.835Z,70.37
2019-03-17T09:41:10.999Z,71.14
2019-03-17T09:43:42.199Z,71.76
2019-03-17T09:46:13.269Z,72.35
2019-03-17T09:48:44.647Z,72.35
2019-03-17T09:51:15.873Z,72.60
2019-03-17T09:53:47.212Z,72.60
2019-03-17T09:56:18.467Z,70.79
2019-03-17T09:58:49.942Z,69.88
2019-03-17T10:01:22.267Z,68.74
2019-03-17T10:03:53.314Z,67.38
2019-03-17T10:06:24.487Z,67.38
2019-03-17T10:09:00.229Z,67.12
2019-03-17T10:11:28.493Z,68.49
2019-03-17T10:13:59.592Z,67.90
2019-03-17T10:16:30.688Z,67.90
2019-03-17T10:19:01.788Z,68.20
2019-03-17T10:21:32.928Z,68.24
2019-03-17T10:24:04.510Z,67.98
2019-03-17T10:26:35.783Z,67.83
2019-03-17T10:29:07.021Z,67.56
2019-03-17T10:31:38.402Z,67.01
2019-03-17T10:34:09.722Z,67.01
2019-03-17T10:36:42.628Z,66.00
2019-03-17T10:39:13.815Z,66.00
2019-03-17T10:41:45.049Z,66.31
2019-03-17T10:44:16.361Z,66.01
2019-03-17T10:46:47.483Z,65.96
2019-03-17T10:49:18.524Z,65.74
2019-03-17T10:51:49.818Z,66.87
2019-03-17T10:54:20.880Z,68.87
2019-03-17T10:56:53.204Z,70.33
2019-03-17T10:59:24.262Z,69.53
2019-03-17T11:01:55.537Z,69.15
2019-03-17T11:04:26.898Z,67.81
2019-03-17T11:06:58.413Z,67.81
2019-03-17T11:09:29.375Z,66.40
2019-03-17T11:12:00.674Z,66.15
2019-03-17T11:14:31.578Z,66.14
2019-03-17T11:17:02.654Z,66.14
2019-03-17T11:19:33.615Z,66.31
2019-03-17T11:22:04.682Z,66.50
2019-03-17T11:24:36.141Z,64.92
2019-03-17T11:27:08.703Z,65.68
2019-03-17T11:29:39.725Z,65.25
2019-03-17T11:32:10.733Z,66.11
2019-03-17T11:34:41.855Z,65.37
2019-03-17T11:37:13.464Z,64.88
2019-03-17T11:39:45.044Z,63.67
2019-03-17T11:42:16.437Z,63.33
2019-03-17T11:44:47.679Z,63.33
2019-03-17T11:47:19.640Z,62.46
2019-03-17T11:49:50.743Z,64.21
2019-03-17T11:52:21.768Z,65.62
2019-03-17T11:54:53.107Z,68.97
2019-03-17T11:57:24.105Z,72.98
2019-03-17T11:59:55.117Z,76.12
2019-03-17T12:02:27.059Z,77.93
2019-03-17T12:04:59.531Z,76.89
2019-03-17T12:07:31.667Z,78.50
2019-03-17T12:10:02.721Z,77.03
2019-03-17T12:12:34.078Z,77.41
2019-03-17T12:15:08.413Z,76.49
2019-03-17T12:17:39.933Z,76.57
2019-03-17T12:20:13.978Z,76.16
2019-03-17T12:22:44.859Z,74.28
2019-03-17T12:25:17.131Z,75.06
2019-03-17T12:27:48.454Z,74.31
2019-03-17T12:30:26.408Z,71.19
2019-03-17T12:32:57.444Z,71.19
2019-03-17T12:35:28.390Z,70.49
2019-03-17T12:37:59.329Z,71.55
2019-03-17T12:40:30.414Z,71.55
2019-03-17T12:43:01.361Z,69.74
2019-03-17T12:45:32.296Z,69.16
2019-03-17T12:48:03.431Z,69.99
2019-03-17T12:50:34.961Z,69.34
2019-03-17T12:53:07.964Z,69.44
2019-03-17T12:55:39.452Z,68.96
2019-03-17T12:58:10.597Z,70.26
2019-03-17T13:00:41.742Z,69.37
2019-03-17T13:03:12.638Z,68.67
2019-03-17T13:05:43.703Z,67.67
2019-03-17T13:08:16.101Z,67.19
2019-03-17T13:10:48.280Z,67.81
2019-03-17T13:13:19.244Z,70.30
2019-03-17T13:15:50.252Z,70.92
2019-03-17T13:18:21.253Z,70.92
2019-03-17T13:20:52.319Z,69.87
2019-03-17T13:23:23.429Z,69.87
2019-03-17T13:25:56.031Z,70.25
2019-03-17T13:28:28.556Z,69.42
2019-03-17T13:30:59.661Z,69.82
2019-03-17T13:33:30.892Z,70.01
2019-03-17T13:36:02.346Z,70.01
2019-03-17T13:38:33.472Z,68.88
2019-03-17T13:41:04.362Z,69.50
2019-03-17T13:43:35.398Z,68.77
2019-03-17T13:46:06.360Z,68.32
2019-03-17T13:48:37.342Z,68.37
2019-03-17T13:51:08.316Z,67.74
2019-03-17T13:53:39.327Z,68.08
2019-03-17T13:56:10.403Z,68.95
2019-03-17T13:58:41.350Z,68.60
2019-03-17T14:01:12.409Z,68.60
2019-03-17T14:03:44.214Z,68.43
2019-03-17T14:06:15.424Z,68.95
2019-03-17T14:08:46.785Z,69.26
2019-03-17T14:11:17.929Z,69.35
2019-03-17T14:13:49.120Z,69.28
2019-03-17T14:16:20.265Z,70.38
2019-03-17T14:18:51.320Z,70.39
2019-03-17T14:21:24.530Z,68.97
2019-03-17T14:23:55.499Z,68.97
2019-03-17T14:26:26.574Z,69.10
2019-03-17T14:28:57.759Z,68.48
2019-03-17T14:31:28.883Z,68.50
2019-03-17T14:34:01.437Z,68.68
2019-03-17T14:36:32.352Z,68.86
2019-03-17T14:39:03.725Z,68.94
2019-03-17T14:41:34.737Z,68.86
2019-03-17T14:44:05.833Z,68.81
2019-03-17T14:46:36.920Z,69.21
2019-03-17T14:49:07.985Z,69.26
2019-03-17T14:51:38.894Z,68.37
2019-03-17T14:54:09.947Z,68.98
2019-03-17T14:56:40.983Z,68.80
2019-03-17T14:59:12.545Z,68.80
2019-03-17T15:01:43.636Z,68.77
2019-03-17T15:04:14.558Z,68.93
2019-03-17T15:06:45.617Z,67.76
2019-03-17T15:09:16.553Z,68.51
2019-03-17T15:11:47.532Z,68.72
2019-03-17T15:14:18.599Z,69.52
2019-03-17T15:16:49.785Z,68.96
2019-03-17T15:19:20.783Z,70.05
2019-03-17T15:21:51.854Z,70.05
2019-03-17T15:24:22.724Z,69.63
2019-03-17T15:26:53.923Z,70.25
2019-03-17T15:29:24.986Z,70.69
2019-03-17T15:31:55.965Z,71.02
2019-03-17T15:34:26.975Z,70.68
2019-03-17T15:36:58.060Z,70.99
2019-03-17T15:39:30.330Z,71.20
2019-03-17T15:42:02.853Z,70.95
2019-03-17T15:44:33.974Z,70.84
2019-03-17T15:47:05.003Z,71.28
2019-03-17T15:49:35.979Z,71.70
2019-03-17T15:52:06.923Z,71.90
2019-03-17T15:54:37.901Z,71.90
2019-03-17T15:57:08.775Z,71.87
2019-03-17T15:59:39.888Z,72.46
2019-03-17T16:02:10.850Z,72.46
2019-03-17T16:04:41.934Z,72.40
2019-03-17T16:07:13.062Z,72.60
2019-03-17T16:09:44.163Z,72.51
2019-03-17T16:12:15.268Z,72.52
2019-03-17T16:14:47.541Z,72.24
2019-03-17T16:17:18.585Z,71.48
2019-03-17T16:19:49.777Z,71.75
2019-03-17T16:22:20.883Z,70.81
2019-03-17T16:24:52.139Z,70.17
2019-03-17T16:27:23.290Z,69.85
2019-03-17T16:29:54.984Z,69.60
2019-03-17T16:32:25.983Z,68.63
2019-03-17T16:34:57.170Z,68.53
2019-03-17T16:37:28.245Z,67.73
2019-03-17T16:39:59.300Z,67.48
2019-03-17T16:42:30.379Z,67.48
2019-03-17T16:45:01.648Z,66.91
2019-03-17T16:47:32.900Z,66.87
2019-03-17T16:50:07.032Z,66.72
2019-03-17T16:52:39.613Z,67.02
2019-03-17T16:55:11.641Z,67.10
2019-03-17T16:57:42.993Z,67.10
2019-03-17T17:00:26.543Z,66.60
2019-03-17T17:02:57.675Z,67.06
2019-03-17T17:05:28.857Z,66.56
2019-03-17T17:07:59.945Z,66.90
2019-03-17T17:10:31.643Z,67.12
2019-03-17T17:13:03.191Z,67.22
2019-03-17T17:15:35.626Z,67.05
2019-03-17T17:18:06.690Z,66.96
2019-03-17T17:20:39.851Z,67.44
2019-03-17T17:23:10.951Z,67.02
2019-03-17T17:25:42.057Z,66.85
2019-03-17T17:28:13.143Z,67.21
2019-03-17T17:30:44.353Z,67.06
2019-03-17T17:33:15.440Z,67.06
2019-03-17T17:35:46.438Z,67.51
2019-03-17T17:38:17.573Z,67.51
2019-03-17T17:40:49.678Z,67.79
2019-03-17T17:43:20.856Z,68.03
2019-03-17T17:45:52.216Z,68.03
2019-03-17T17:48:23.267Z,67.97
2019-03-17T17:50:54.514Z,68.15
2019-03-17T17:53:25.600Z,68.77
2019-03-17T17:55:56.743Z,68.95
2019-03-17T17:58:27.918Z,68.66
2019-03-17T18:00:59.045Z,69.01
2019-03-17T18:03:30.164Z,69.35
2019-03-17T18:06:01.332Z,69.01
2019-03-17T18:08:32.418Z,69.45
2019-03-17T18:11:04.468Z,69.84
2019-03-17T18:13:35.681Z,70.34
2019-03-17T18:16:08.721Z,70.34
2019-03-17T18:18:39.904Z,70.31
2019-03-17T18:21:11.053Z,70.73
2019-03-17T18:23:42.161Z,71.05
2019-03-17T18:26:13.269Z,71.26
2019-03-17T18:28:44.474Z,68.39
2019-03-17T18:31:15.624Z,69.66
2019-03-17T18:33:46.835Z,69.66
2019-03-17T18:36:17.974Z,70.23
2019-03-17T18:38:51.184Z,70.35
2019-03-17T18:41:22.555Z,71.02
2019-03-17T18:43:53.608Z,71.08
2019-03-17T18:46:25.642Z,71.12
2019-03-17T18:48:56.818Z,70.87
2019-03-17T18:51:27.944Z,70.96
2019-03-17T18:53:59.098Z,71.33
2019-03-17T18:56:30.274Z,71.39
2019-03-17T18:59:01.374Z,71.73
2019-03-17T19:01:32.679Z,71.97
2019-03-17T19:04:03.840Z,71.44
2019-03-17T19:06:34.925Z,71.56
2019-03-17T19:09:06.787Z,71.55
2019-03-17T19:11:37.934Z,71.83
2019-03-17T19:14:08.975Z,71.80
2019-03-17T19:16:39.957Z,71.69
2019-03-17T19:19:11.313Z,72.12
2019-03-17T19:21:42.299Z,72.13
2019-03-17T19:24:13.334Z,72.39
2019-03-17T19:26:44.568Z,72.34
2019-03-17T19:29:15.790Z,72.33
2019-03-17T19:31:47.037Z,72.41
2019-03-17T19:34:18.024Z,72.62
2019-03-17T19:36:49.180Z,72.32
2019-03-17T19:39:20.194Z,72.37
2019-03-17T19:41:51.247Z,72.28
2019-03-17T19:44:22.385Z,72.48
2019-03-17T19:46:54.637Z,72.71
2019-03-17T19:49:25.700Z,72.78
2019-03-17T19:51:56.711Z,72.51
2019-03-17T19:54:28.784Z,72.58
2019-03-17T19:56:59.987Z,72.56
2019-03-17T19:59:31.179Z,72.08
2019-03-17T20:02:02.383Z,72.02
2019-03-17T20:04:35.559Z,71.72
2019-03-17T20:07:06.454Z,72.10
2019-03-17T20:09:37.421Z,72.88
2019-03-17T20:12:08.488Z,72.55
2019-03-17T20:14:41.975Z,72.55
2019-03-17T20:17:13.991Z,72.52
2019-03-17T20:19:45.161Z,72.69
2019-03-17T20:22:16.262Z,72.50
2019-03-17T20:24:47.325Z,72.46
2019-03-17T20:27:18.526Z,73.06
2019-03-17T20:29:49.669Z,73.12
2019-03-17T20:32:20.892Z,73.12
2019-03-17T20:34:51.971Z,73.14
2019-03-17T20:37:23.100Z,73.26
2019-03-17T20:39:55.362Z,73.19
2019-03-17T20:42:26.529Z,73.09
2019-03-17T20:44:57.612Z,73.30
2019-03-17T20:47:28.700Z,73.17
2019-03-17T20:49:59.714Z,73.12
2019-03-17T20:52:30.862Z,73.13
2019-03-17T20:55:01.845Z,73.24
2019-03-17T20:57:32.924Z,73.33
2019-03-17T21:00:07.307Z,73.37
2019-03-17T21:02:38.363Z,73.41
2019-03-17T21:05:10.981Z,73.56
2019-03-17T21:07:42.035Z,73.39
2019-03-17T21:10:14.302Z,73.18
2019-03-17T21:12:45.376Z,73.48
2019-03-17T21:15:22.492Z,73.42
2019-03-17T21:17:53.550Z,73.72
2019-03-17T21:20:25.604Z,73.92
2019-03-17T21:22:56.830Z,73.83
2019-03-17T21:25:27.868Z,73.80
2019-03-17T21:27:58.914Z,73.81
2019-03-17T21:30:31.530Z,73.93
2019-03-17T21:33:02.646Z,73.62
2019-03-17T21:35:33.926Z,73.81
2019-03-17T21:38:05.063Z,73.60
2019-03-17T21:40:36.052Z,73.69
2019-03-17T21:43:07.146Z,73.73
2019-03-17T21:45:38.195Z,73.90
2019-03-17T21:48:09.304Z,73.42
2019-03-17T21:50:40.400Z,73.53
2019-03-17T21:53:11.583Z,73.80
2019-03-17T21:55:42.662Z,74.59
2019-03-17T21:58:13.685Z,75.35
2019-03-17T22:00:44.741Z,75.83
2019-03-17T22:03:19.139Z,76.19
2019-03-17T22:05:50.420Z,76.09
2019-03-17T22:08:21.589Z,76.06
2019-03-17T22:10:52.699Z,76.70
2019-03-17T22:13:23.860Z,77.57
2019-03-17T22:15:54.901Z,77.07
2019-03-17T22:18:26.101Z,77.11
2019-03-17T22:20:57.172Z,76.89
2019-03-17T22:23:28.154Z,77.34
2019-03-17T22:25:59.256Z,77.14
2019-03-17T22:28:30.339Z,77.29
2019-03-17T22:31:01.446Z,78.13
2019-03-17T22:33:32.555Z,78.42
2019-03-17T22:36:03.841Z,78.44
2019-03-17T22:38:35.092Z,78.53
2019-03-17T22:41:06.285Z,79.21
2019-03-17T22:43:37.403Z,79.46
2019-03-17T22:46:08.505Z,79.29
2019-03-17T22:48:39.541Z,78.44
2019-03-17T22:51:11.601Z,78.70
2019-03-17T22:53:42.647Z,78.48
2019-03-17T22:56:13.634Z,78.31
2019-03-17T22:58:44.747Z,78.01
2019-03-17T23:01:15.788Z,77.88
2019-03-17T23:03:46.997Z,77.94
2019-03-17T23:06:18.322Z,78.12
2019-03-17T23:08:49.701Z,78.15
2019-03-17T23:11:20.714Z,77.89
2019-03-17T23:13:51.811Z,77.93
2019-03-17T23:16:22.957Z,77.81
2019-03-17T23:18:54.092Z,78.65
2019-03-17T23:21:25.156Z,79.12
2019-03-17T23:23:56.567Z,79.14
2019-03-17T23:26:27.743Z,78.62
2019-03-17T23:28:58.884Z,78.53
2019-03-17T23:31:30.026Z,78.36
2019-03-17T23:34:01.321Z,78.55
2019-03-17T23:36:32.424Z,78.54
2019-03-17T23:39:03.752Z,78.07
2019-03-17T23:41:34.892Z,78.21
2019-03-17T23:44:05.956Z,78.06
2019-03-17T23:46:37.100Z,78.62
2019-03-17T23:49:09.262Z,78.42
2019-03-17T23:51:40.338Z,78.10
2019-03-17T23:54:11.564Z,77.27
2019-03-17T23:56:42.706Z,77.66
2019-03-17T23:59:13.681Z,77.31
